الصفحة الرئيسية
METAR-TAF:

METAR-TAF

مطار :

Labuan, ماليزيا

دائرة عرض: 05-18N, خط طول: 115-15E, ارتفاع: 30 متر

مراقبة الطقس الحالي

تاريخ ووقت الإصدار 54 دقيقة قبل الساعة 00:00UTC
ريح 3 عقدةمن اتجاهات متغيرة
درجة الحرارة 28°درجة مئوية
الرطوبة 94%
ضغط 1010 hPa
الرؤية 10 كم أو أكثر
غيوم قليلة على ارتفاع 1500 قدم
غيوم متفرقة على ارتفاع 14000 قدم
غيوم مفككة على ارتفاع 30000 قدم

METAR: WBKL 290000Z VRB03KT 9999 FEW015 SCT140 BKN300 28/27 Q1010

زمن: 08:54 (00:54 UTC)

توقعات

تاريخ ووقت الإصدار 1ساعة و 54 دقيقة قبل الساعة 23:00UTC
التوقعات صالحة من29 الساعة 00 UTC إلى 30 الساعة 00 UTC
ريح 5 عقدة من الجنوب/الجنوب الشرقي
الرؤية 10 كم أو أكثر
غيوم قليلة على ارتفاع 1400 قدم
مؤقت
من 29 الساعة 11 UTC إلى 29 الساعة 14 UTC
الرؤية: 5000 متر
غيوم قليلة على ارتفاع 1200 قدم
غيوم قليلة على ارتفاع 1300 قدم, مزنة ركامية.
غيوم متفرقة على ارتفاع 3000 قدم
عاصفة رعدية, مطر

TAF: WBKL 282300Z 2900/3000 15005KT 9999 FEW014 TEMPO 2911/2914 5000 TSRA FEW012 FEW013CB SCT030

أرصاد الطقس والتوقعات من أكثر من 4000 مطار (تقارير الطقس للمطار METAR والتنبؤ بالطقس بالمطارTAF).

المحطات المتاحة هي النقط الصفراء والحمراء على الخريطة.

حرك المؤشر فوق النقطة لمعرفة اسم المحطة.

ثم انقر لمعرفة أرصاد وتوقعات الطقس.

لتغيير الخارطة: اضغط على الأزرار الخضراء مع رمز الصليب الأسود للتكبير. على الزر الأخضر مع شرطة للتصغير، أو على الأسهم الخضراء للخرائط المجاورة.


METAR-TAF: